Time;durP1;ratioP1;P1;durP2;ratioP2;P2;SDS_P1;SDS_P2;PMS_P1;PMS_P2;Temp;Humidity;BMP_temperature;BMP_pressure;BME280_temperature;BME280_humidity;BME280_pressure;Samples;Min_cycle;Max_cycle;Signal;HPM_P1;HPM_P2
2024/04/15 00:01:22;;;;;;;5.75;1.10;;;;;;;8.95;74.92;100371.50;10253751;28;20017;-74
2024/04/15 00:06:24;;;;;;;7.22;2.17;;;;;;;8.79;76.88;100369.97;10250460;28;20180;-74
2024/04/15 00:11:25;;;;;;;4.57;1.30;;;;;;;8.55;79.66;100369.09;10253063;29;20024;-75
2024/04/15 00:16:27;;;;;;;7.03;1.50;;;;;;;8.28;82.12;100363.88;10238823;28;20024;-75
2024/04/15 00:21:29;;;;;;;9.73;2.78;;;;;;;8.26;89.07;100341.72;10247797;28;20744;-75
2024/04/15 00:26:31;;;;;;;4.03;1.35;;;;;;;8.38;93.53;100332.81;10226773;28;20143;-76
2024/04/15 00:31:33;;;;;;;6.45;1.70;;;;;;;8.35;96.18;100320.50;10251295;28;20396;-77
2024/04/15 00:36:36;;;;;;;6.20;1.60;;;;;;;8.23;94.22;100317.84;10250490;28;20024;-77
2024/04/15 00:41:38;;;;;;;6.80;2.13;;;;;;;8.16;97.72;100309.41;10252751;29;20441;-76
2024/04/15 00:46:40;;;;;;;7.45;2.47;;;;;;;8.26;97.92;100288.22;10232551;28;20013;-76
2024/04/15 00:51:42;;;;;;;9.50;1.85;;;;;;;8.63;100.00;100280.16;10242950;28;20009;-76
2024/04/15 00:56:44;;;;;;;3.42;1.20;;;;;;;8.79;100.00;100264.66;10243247;28;20356;-76
2024/04/15 01:01:46;;;;;;;5.82;2.70;;;;;;;8.83;100.00;100248.25;10247780;28;20024;-76
2024/04/15 01:06:48;;;;;;;4.93;1.73;;;;;;;8.91;100.00;100244.97;10246109;29;20091;-76
2024/04/15 01:11:50;;;;;;;5.13;1.70;;;;;;;8.93;100.00;100229.63;10246041;29;20021;-75
2024/04/15 01:16:52;;;;;;;9.20;3.05;;;;;;;8.90;100.00;100232.53;10234657;28;20013;-77
2024/04/15 01:21:54;;;;;;;10.40;2.73;;;;;;;8.64;100.00;100239.91;10256531;29;20022;-76
2024/04/15 01:26:56;;;;;;;12.13;3.00;;;;;;;8.60;100.00;100225.88;10256062;28;20024;-78
2024/04/15 01:31:57;;;;;;;8.20;2.50;;;;;;;8.74;100.00;100214.09;10261405;28;20005;-75
2024/04/15 01:37:00;;;;;;;7.67;1.73;;;;;;;8.91;100.00;100204.78;10256623;29;20041;-75
2024/04/15 01:42:02;;;;;;;4.13;1.85;;;;;;;8.72;100.00;100191.97;10256661;29;20243;-77
2024/04/15 01:47:04;;;;;;;5.47;1.95;;;;;;;8.85;100.00;100181.16;10256715;28;20370;-77
2024/04/15 01:52:06;;;;;;;7.03;2.35;;;;;;;8.78;100.00;100175.41;10256387;29;20038;-76
2024/04/15 01:57:07;;;;;;;3.00;1.80;;;;;;;8.96;100.00;100172.28;10256114;29;20028;-76
2024/04/15 02:02:09;;;;;;;5.00;2.20;;;;;;;9.07;100.00;100156.22;10256112;29;20270;-76
2024/04/15 02:07:11;;;;;;;9.00;3.73;;;;;;;9.08;100.00;100154.38;10255905;29;20033;-75
2024/04/15 02:12:13;;;;;;;12.25;4.35;;;;;;;9.12;100.00;100137.97;10255468;28;20434;-76
2024/04/15 02:17:15;;;;;;;9.52;2.50;;;;;;;9.03;100.00;100118.09;10254975;28;20025;-76
2024/04/15 02:22:17;;;;;;;9.40;2.67;;;;;;;8.96;100.00;100102.63;10255810;28;20009;-77
2024/04/15 02:27:18;;;;;;;3.93;2.27;;;;;;;9.00;100.00;100088.88;10254761;28;20736;-76
2024/04/15 02:32:20;;;;;;;11.20;2.73;;;;;;;8.82;100.00;100087.66;10254526;28;20278;-76
2024/04/15 02:37:22;;;;;;;6.13;2.58;;;;;;;8.83;100.00;100083.97;10254625;28;20024;-76
2024/04/15 02:42:24;;;;;;;3.35;2.13;;;;;;;8.75;100.00;100068.53;10255126;28;20108;-75
2024/04/15 02:47:27;;;;;;;5.07;2.60;;;;;;;8.72;100.00;100066.09;10241430;29;20018;-75
2024/04/15 02:52:29;;;;;;;6.47;2.40;;;;;;;8.72;100.00;100062.56;10254351;29;20244;-75
2024/04/15 02:57:31;;;;;;;7.40;2.33;;;;;;;8.83;100.00;100057.19;10254837;29;20091;-74
2024/04/15 03:02:32;;;;;;;6.67;2.83;;;;;;;8.88;100.00;100056.84;10255729;29;20356;-76
2024/04/15 03:07:34;;;;;;;8.90;3.88;;;;;;;8.84;100.00;100058.91;10255160;28;20028;-75
2024/04/15 03:12:36;;;;;;;7.13;3.90;;;;;;;8.83;100.00;100044.69;10255102;29;20494;-76
2024/04/15 03:17:38;;;;;;;14.30;5.80;;;;;;;8.75;100.00;100052.47;10227875;28;20017;-76
2024/04/15 03:22:40;;;;;;;11.50;5.25;;;;;;;8.77;100.00;100046.97;10254910;28;20013;-75
2024/04/15 03:27:43;;;;;;;14.90;5.68;;;;;;;8.72;100.00;100033.97;10255032;29;20024;-77
2024/04/15 03:32:44;;;;;;;15.45;6.82;;;;;;;8.72;100.00;100031.28;10244480;28;20009;-76
2024/04/15 03:37:46;;;;;;;12.75;7.13;;;;;;;8.51;100.00;100017.75;10257604;28;20123;-75
2024/04/15 03:42:48;;;;;;;11.33;7.17;;;;;;;8.53;100.00;100007.78;10254743;28;20152;-75
2024/04/15 03:47:50;;;;;;;17.52;7.80;;;;;;;8.41;100.00;99998.00;10253382;28;20045;-76
2024/04/15 03:52:54;;;;;;;10.55;7.47;;;;;;;8.42;100.00;99996.16;10253438;29;20493;-75
2024/04/15 03:57:56;;;;;;;12.00;8.02;;;;;;;8.44;99.92;99984.38;10253280;28;20028;-75
2024/04/15 04:02:58;;;;;;;13.77;8.57;;;;;;;8.26;100.00;99991.19;10253711;29;20041;-75
2024/04/15 04:07:59;;;;;;;15.85;9.80;;;;;;;8.21;100.00;99983.50;10254176;29;20028;-75
2024/04/15 04:13:01;;;;;;;17.58;9.23;;;;;;;8.25;99.47;99976.91;10253133;29;20020;-76
2024/04/15 04:18:04;;;;;;;18.25;10.30;;;;;;;8.32;99.89;99958.56;10254660;28;20370;-76
2024/04/15 04:23:06;;;;;;;18.60;9.82;;;;;;;8.25;99.78;99970.72;10252948;29;20025;-75
2024/04/15 04:28:08;;;;;;;15.97;9.47;;;;;;;8.29;99.59;99962.34;10254437;29;20021;-75
2024/04/15 04:33:10;;;;;;;14.85;9.23;;;;;;;8.30;98.95;99960.50;10254397;29;20166;-76
2024/04/15 04:38:12;;;;;;;14.97;8.17;;;;;;;8.04;99.52;99967.91;10253945;29;20018;-75
2024/04/15 04:43:14;;;;;;;14.50;10.63;;;;;;;8.11;100.00;99951.25;10230909;28;20275;-76
2024/04/15 04:48:16;;;;;;;17.33;12.35;;;;;;;7.97;99.03;99938.09;10253682;28;20099;-76
2024/04/15 04:53:18;;;;;;;19.17;11.88;;;;;;;8.19;98.28;99945.28;10254489;29;20009;-75
2024/04/15 04:58:20;;;;;;;27.53;12.33;;;;;;;8.19;98.65;99950.66;10238689;28;20014;-76
2024/04/15 05:03:21;;;;;;;18.93;11.47;;;;;;;8.09;98.20;99950.53;10253880;29;20013;-78
2024/04/15 05:08:23;;;;;;;18.97;11.87;;;;;;;8.12;99.15;99936.91;10254218;29;20828;-75
2024/04/15 05:13:26;;;;;;;22.50;12.63;;;;;;;7.87;100.00;99935.28;10227215;29;20299;-75
2024/04/15 05:18:28;;;;;;;23.08;11.98;;;;;;;7.91;98.54;99935.91;10253190;28;20656;-75
2024/04/15 05:23:31;;;;;;;15.15;8.85;;;;;;;7.90;95.07;99928.84;10226690;29;20013;-76
2024/04/15 05:28:33;;;;;;;;;;;;;;;7.93;95.72;99924.09;10253446;28;20021;-75
2024/04/15 05:33:34;;;;;;;18.27;9.32;;;;;;;7.82;92.11;99912.53;10252757;29;19939;-75
2024/04/15 05:38:39;;;;;;;17.98;10.02;;;;;;;8.23;89.84;99905.75;10267437;29;20005;-75
2024/04/15 05:43:41;;;;;;;22.17;10.27;;;;;;;8.29;89.65;99895.44;10235893;29;20013;-75
2024/04/15 05:48:43;;;;;;;17.37;10.13;;;;;;;8.06;90.36;99891.88;10255563;28;20029;-75
2024/04/15 05:53:45;;;;;;;18.35;8.43;;;;;;;7.86;87.64;99892.59;10253260;28;20288;-75
2024/04/15 05:58:47;;;;;;;17.57;9.67;;;;;;;8.26;86.13;99881.47;10240346;28;20009;-75
2024/04/15 06:03:49;;;;;;;14.02;9.68;;;;;;;8.42;85.26;99876.59;10254852;28;20095;-76
2024/04/15 06:08:50;;;;;;;18.40;8.82;;;;;;;8.32;83.33;99873.78;10256198;28;20106;-77
2024/04/15 06:13:53;;;;;;;19.40;9.32;;;;;;;8.89;82.80;99866.56;10252737;28;20075;-75
2024/04/15 06:18:54;;;;;;;17.83;10.00;;;;;;;8.76;83.68;99850.63;10248771;28;20037;-77
2024/04/15 06:23:56;;;;;;;20.53;10.63;;;;;;;8.85;82.24;99859.75;10252824;28;20010;-75
2024/04/15 06:28:58;;;;;;;19.13;10.70;;;;;;;9.08;81.32;99838.22;10254837;28;20244;-74
2024/04/15 06:34:00;;;;;;;21.97;10.33;;;;;;;8.97;81.43;99842.66;10256186;29;20021;-74
2024/04/15 06:39:02;;;;;;;25.83;12.25;;;;;;;9.32;82.57;99828.13;10256950;29;20580;-75
2024/04/15 06:44:04;;;;;;;27.27;13.43;;;;;;;9.34;81.22;99820.81;10230228;28;20013;-75
2024/04/15 06:49:06;;;;;;;28.77;16.30;;;;;;;9.39;80.67;99817.75;10254156;28;20013;-76
2024/04/15 06:54:08;;;;;;;28.47;15.83;;;;;;;9.19;81.50;99806.06;10255229;28;20104;-75
2024/04/15 06:59:10;;;;;;;29.00;18.60;;;;;;;9.04;82.76;99803.66;10227098;28;21200;-75
2024/04/15 07:04:12;;;;;;;32.33;20.95;;;;;;;8.97;84.16;99804.31;10245810;29;20014;-76
2024/04/15 07:09:14;;;;;;;31.23;20.83;;;;;;;8.94;82.73;99800.06;10242136;28;20386;-75
2024/04/15 07:14:16;;;;;;;27.20;18.30;;;;;;;8.91;82.99;99786.91;10252442;28;20029;-75
2024/04/15 07:19:18;;;;;;;33.83;20.27;;;;;;;9.16;82.78;99784.84;10252842;28;20069;-75
2024/04/15 07:24:20;;;;;;;28.02;17.58;;;;;;;9.71;78.43;99772.94;10253259;29;20099;-75
2024/04/15 07:29:22;;;;;;;34.45;18.98;;;;;;;9.40;77.95;99777.41;10253383;29;20087;-76
2024/04/15 07:34:24;;;;;;;37.93;21.93;;;;;;;9.40;80.09;99764.00;10254001;28;20730;-75
2024/04/15 07:39:28;;;;;;;28.38;15.55;;;;;;;9.05;77.50;99772.34;10254563;29;20010;-75
2024/04/15 07:44:29;;;;;;;20.63;13.33;;;;;;;9.01;78.16;99747.66;10230493;29;20028;-74
2024/04/15 07:49:33;;;;;;;34.67;19.83;;;;;;;8.99;77.99;99743.41;10254453;29;20119;-74
2024/04/15 07:54:36;;;;;;;21.23;12.77;;;;;;;9.09;75.18;99728.25;10253480;28;20027;-75
2024/04/15 07:59:38;;;;;;;22.57;13.50;;;;;;;9.61;72.91;99729.13;10254207;28;20009;-75
2024/04/15 08:04:39;;;;;;;23.97;12.27;;;;;;;9.40;72.03;99717.56;10253831;28;20013;-74
2024/04/15 08:09:41;;;;;;;22.40;9.20;;;;;;;9.18;72.49;99708.72;10252070;28;20721;-74
2024/04/15 08:14:43;;;;;;;19.50;10.45;;;;;;;9.47;71.93;99711.56;10242929;28;20311;-75
2024/04/15 08:19:45;;;;;;;16.63;6.47;;;;;;;9.30;70.50;99720.22;10227506;29;20028;-75
2024/04/15 08:24:48;;;;;;;14.60;8.43;;;;;;;9.72;71.02;99709.41;10252725;28;20288;-75
2024/04/15 08:29:54;;;;;;;14.10;8.63;;;;;;;9.16;73.72;99716.06;10253372;29;20715;-74
2024/04/15 08:35:02;;;;;;;21.17;10.23;;;;;;;9.35;71.67;99712.63;10252397;29;20360;-73
2024/04/15 08:40:04;;;;;;;17.85;10.13;;;;;;;9.10;72.46;99697.81;10253276;29;20006;-75
2024/04/15 08:45:07;;;;;;;;;;;;;;;9.25;73.00;99704.53;10252892;28;20065;-74
2024/04/15 08:50:09;;;;;;;15.98;8.80;;;;;;;9.36;71.10;99684.00;10252063;28;19932;-75
2024/04/15 08:55:11;;;;;;;24.30;14.13;;;;;;;9.65;71.33;99666.22;10250255;28;20009;-75
2024/04/15 09:00:19;;;;;;;19.85;11.80;;;;;;;10.10;68.07;99652.34;10252385;28;20099;-75
2024/04/15 09:05:20;;;;;;;25.63;14.20;;;;;;;9.93;70.33;99643.16;10252004;29;20009;-75
2024/04/15 09:10:22;;;;;;;22.75;14.43;;;;;;;10.56;67.96;99634.72;10252678;28;20041;-74
2024/04/15 09:15:27;;;;;;;28.02;12.38;;;;;;;10.73;64.43;99632.31;10238484;28;20020;-75
2024/04/15 09:20:29;;;;;;;18.70;11.52;;;;;;;12.51;59.22;99598.84;10244938;28;20010;-75
2024/04/15 09:25:50;;;;;;;19.17;9.48;;;;;;;11.77;57.88;99591.91;10250119;29;20484;-74
2024/04/15 09:30:52;;;;;;;16.13;6.23;;;;;;;10.91;58.90;99592.09;10252700;28;20013;-75
2024/04/15 09:35:54;;;;;;;15.10;8.35;;;;;;;11.38;57.67;99571.44;10253035;28;20260;-74
2024/04/15 09:40:58;;;;;;;8.93;5.50;;;;;;;11.15;56.24;99572.81;10257636;29;20013;-75
2024/04/15 09:46:00;;;;;;;16.52;6.38;;;;;;;10.37;58.63;99565.78;10257208;28;20375;-74
2024/04/15 09:51:06;;;;;;;15.60;7.30;;;;;;;10.31;59.95;99535.94;10231730;28;20024;-76
2024/04/15 09:56:16;;;;;;;10.43;5.70;;;;;;;10.75;59.84;99528.22;10255279;29;20263;-75
2024/04/15 10:01:21;;;;;;;15.23;5.68;;;;;;;10.82;58.43;99511.38;10252601;29;20014;-74
2024/04/15 10:06:41;;;;;;;13.38;6.07;;;;;;;10.39;60.68;99502.06;10232518;29;20028;-75
2024/04/15 10:11:47;;;;;;;;;;;;;;;11.50;57.51;99486.03;10257455;28;20037;-75
2024/04/15 10:16:54;;;;;;;8.57;4.28;;;;;;;10.80;57.90;99491.03;10257365;29;20344;-75
2024/04/15 10:21:56;;;;;;;5.90;4.07;;;;;;;10.85;57.53;99464.56;10256551;29;20009;-72
2024/04/15 10:26:59;;;;;;;8.38;4.50;;;;;;;11.35;58.40;99448.03;10256115;29;20021;-75
2024/04/15 10:32:05;;;;;;;;;;;;;;;11.42;54.73;99440.22;10256641;28;20020;-76
2024/04/15 10:37:11;;;;;;;28.00;3.38;;;;;;;12.37;53.87;99433.28;10256383;29;19932;-75
2024/04/15 10:42:13;;;;;;;9.57;3.30;;;;;;;12.77;52.01;99412.94;10257366;28;20045;-73
2024/04/15 10:47:15;;;;;;;10.95;3.13;;;;;;;12.66;50.16;99408.69;10256241;28;20013;-73
2024/04/15 10:52:19;;;;;;;7.28;3.78;;;;;;;10.91;51.90;99406.69;10256428;29;20056;-75
2024/04/15 10:57:21;;;;;;;7.38;2.88;;;;;;;11.27;52.66;99383.44;10255860;28;20508;-74
2024/04/15 11:02:23;;;;;;;6.07;2.85;;;;;;;12.40;50.09;99368.34;10255136;28;20362;-76
2024/04/15 11:07:24;;;;;;;10.13;2.80;;;;;;;12.15;50.23;99365.47;10254830;28;20467;-75
2024/04/15 11:12:26;;;;;;;14.60;2.72;;;;;;;12.65;49.11;99354.97;10254512;28;20297;-76
2024/04/15 11:17:30;;;;;;;5.30;2.35;;;;;;;11.76;48.54;99354.28;10254292;28;20025;-77
2024/04/15 11:22:32;;;;;;;6.20;2.58;;;;;;;12.41;50.01;99324.22;10253909;28;20019;-76
2024/04/15 11:27:37;;;;;;;6.57;2.30;;;;;;;11.65;48.84;99323.09;10227539;28;20080;-76
2024/04/15 11:32:39;;;;;;;6.68;2.67;;;;;;;12.13;50.76;99300.19;10254174;28;20057;-75
2024/04/15 11:37:41;;;;;;;7.90;2.95;;;;;;;11.98;49.30;99298.25;10242558;28;20091;-75
2024/04/15 11:42:43;;;;;;;;;;;;;;;11.98;49.11;99272.16;10252276;28;20475;-73
2024/04/15 11:47:51;;;;;;;10.27;2.22;;;;;;;11.82;48.73;99291.78;10254612;28;20404;-75
2024/04/15 11:52:59;;;;;;;6.68;2.03;;;;;;;12.60;48.29;99261.16;10254649;28;20009;-75
2024/04/15 11:58:01;;;;;;;4.25;2.53;;;;;;;12.03;47.02;99251.00;10251573;28;20005;-75
2024/04/15 12:03:04;;;;;;;3.08;1.45;;;;;;;12.75;46.61;99208.34;10257435;28;20028;-75
2024/04/15 12:08:07;;;;;;;2.60;1.60;;;;;;;14.99;44.00;99211.81;10256025;28;20094;-74
2024/04/15 12:13:09;;;;;;;10.80;1.48;;;;;;;14.31;42.77;99197.19;10252875;28;20010;-75
2024/04/15 12:18:11;;;;;;;5.20;1.90;;;;;;;13.75;44.48;99173.00;10253001;28;20013;-75
2024/04/15 12:23:13;;;;;;;6.10;1.23;;;;;;;12.58;46.16;99160.81;10251803;28;20493;-77
2024/04/15 12:28:15;;;;;;;7.70;1.63;;;;;;;12.86;45.99;99160.50;10253254;28;20013;-75
2024/04/15 12:33:17;;;;;;;4.90;2.05;;;;;;;13.33;46.02;99133.66;10253537;28;20380;-75
2024/04/15 12:38:18;;;;;;;1.85;1.33;;;;;;;13.82;43.83;99100.25;10255386;28;20042;-76
2024/04/15 12:43:20;;;;;;;3.80;1.90;;;;;;;13.69;43.60;99108.94;10254303;28;20613;-75
2024/04/15 12:48:22;;;;;;;5.88;3.05;;;;;;;13.49;44.40;99068.03;10253170;28;20307;-75
2024/04/15 12:53:25;;;;;;;8.05;4.13;;;;;;;13.20;44.38;99053.28;10251563;28;20009;-75
2024/04/15 12:58:26;;;;;;;10.90;5.32;;;;;;;14.28;44.15;99040.91;10250921;28;20023;-75
2024/04/15 13:03:28;;;;;;;9.55;3.88;;;;;;;14.18;43.46;99022.28;10252619;28;20021;-75
2024/04/15 13:08:30;;;;;;;4.90;2.22;;;;;;;13.90;43.33;99019.25;10252041;28;20063;-75
2024/04/15 13:13:32;;;;;;;10.32;3.70;;;;;;;13.70;43.52;99016.16;10257137;28;20009;-76
2024/04/15 13:18:34;;;;;;;9.18;5.47;;;;;;;13.55;45.66;99012.53;10257349;28;20478;-76
2024/04/15 13:23:36;;;;;;;9.60;2.72;;;;;;;13.27;44.53;98983.31;10258975;28;20010;-76
2024/04/15 13:28:38;;;;;;;7.23;3.47;;;;;;;13.07;44.59;98976.69;10257119;28;20024;-76
2024/04/15 13:33:39;;;;;;;12.13;5.70;;;;;;;13.33;45.83;98955.66;10257428;28;20021;-75
2024/04/15 13:38:42;;;;;;;18.13;4.88;;;;;;;13.34;45.36;98935.75;10257530;28;20054;-76
2024/04/15 13:43:43;;;;;;;24.80;13.90;;;;;;;12.85;45.79;98914.44;10248773;28;20017;-75
2024/04/15 13:48:45;;;;;;;18.37;8.67;;;;;;;13.02;45.94;98901.72;10258108;28;20241;-75
2024/04/15 13:53:47;;;;;;;12.33;6.10;;;;;;;12.46;47.60;98891.00;10257379;28;20017;-76
2024/04/15 13:58:51;;;;;;;51.97;21.60;;;;;;;12.78;48.70;98886.50;10257635;28;20013;-74
2024/04/15 14:03:54;;;;;;;7.45;2.78;;;;;;;12.96;46.34;98859.31;10256037;28;20482;-75
2024/04/15 14:08:56;;;;;;;7.60;1.48;;;;;;;12.79;45.39;98829.75;10280841;28;20029;-76
2024/04/15 14:13:58;;;;;;;7.85;1.35;;;;;;;12.69;44.87;98804.06;10285007;28;20013;-74
2024/04/15 14:19:01;;;;;;;6.97;1.60;;;;;;;12.27;46.52;98818.69;10287069;28;20013;-74
2024/04/15 14:24:04;;;;;;;12.75;3.97;;;;;;;12.08;47.40;98826.13;10265764;28;20113;-74
2024/04/15 14:29:07;;;;;;;9.15;3.35;;;;;;;11.25;49.29;98823.69;10257368;28;20006;-74
2024/04/15 14:34:09;;;;;;;5.97;2.35;;;;;;;11.35;49.80;98813.59;10250482;28;20017;-76
2024/04/15 14:39:11;;;;;;;5.97;2.70;;;;;;;10.88;54.10;98816.03;10257159;28;20013;-74
2024/04/15 14:44:13;;;;;;;3.28;2.17;;;;;;;9.57;62.92;98807.28;10249713;28;20009;-74
2024/04/15 14:49:15;;;;;;;6.37;1.97;;;;;;;9.74;63.41;98787.66;10262596;28;20428;-73
2024/04/15 14:54:25;;;;;;;12.73;4.35;;;;;;;10.38;62.01;98777.44;10260500;28;20260;-76
2024/04/15 14:59:28;;;;;;;2.40;2.10;;;;;;;10.86;60.30;98770.53;10256381;28;20068;-76
2024/04/15 15:04:30;;;;;;;9.65;3.33;;;;;;;10.34;60.69;98781.47;10267413;28;20014;-76
2024/04/15 15:09:31;;;;;;;6.00;3.10;;;;;;;10.49;60.67;98725.31;10256185;28;20045;-76
2024/04/15 15:14:33;;;;;;;6.83;5.07;;;;;;;10.11;61.33;98752.50;10258002;28;20013;-76
2024/04/15 15:19:35;;;;;;;4.55;1.25;;;;;;;9.93;62.92;98701.66;10245875;28;20013;-73
2024/04/15 15:24:37;;;;;;;7.78;2.08;;;;;;;9.91;59.48;98684.03;10255512;28;20009;-76
2024/04/15 15:29:39;;;;;;;5.55;1.50;;;;;;;10.57;58.14;98652.84;10255554;28;20035;-75
2024/04/15 15:34:41;;;;;;;5.57;1.13;;;;;;;11.10;58.27;98632.66;10248250;28;20017;-77
2024/04/15 15:39:43;;;;;;;4.77;1.60;;;;;;;10.89;58.20;98629.66;10248379;28;20021;-76
2024/04/15 15:44:45;;;;;;;2.73;1.27;;;;;;;10.47;59.18;98614.56;10257682;28;20568;-74
2024/04/15 15:49:49;;;;;;;2.28;1.00;;;;;;;10.43;60.92;98630.19;10250031;28;20013;-74
2024/04/15 15:54:51;;;;;;;15.65;7.88;;;;;;;9.32;68.92;98651.69;10242148;28;20028;-74
2024/04/15 15:59:53;;;;;;;3.67;1.73;;;;;;;7.90;81.47;98646.28;10249263;28;20028;-74
2024/04/15 16:04:56;;;;;;;7.43;2.63;;;;;;;7.89;88.44;98665.94;10252979;28;20493;-74
2024/04/15 16:09:58;;;;;;;5.03;2.85;;;;;;;7.06;100.00;98676.53;10246763;28;20032;-74
2024/04/15 16:14:59;;;;;;;1.60;1.10;;;;;;;5.99;100.00;98722.75;10257353;28;20363;-74
2024/04/15 16:20:03;;;;;;;1.05;0.68;;;;;;;5.36;100.00;98746.88;10255219;28;20014;-75
2024/04/15 16:25:05;;;;;;;1.23;0.68;;;;;;;4.52;100.00;98768.84;10257938;28;20762;-74
2024/04/15 16:30:08;;;;;;;0.93;0.73;;;;;;;4.31;100.00;98728.94;10266625;28;20028;-75
2024/04/15 16:35:13;;;;;;;3.03;1.60;;;;;;;4.08;100.00;98753.84;10250425;28;20013;-76
2024/04/15 16:40:15;;;;;;;0.73;0.28;;;;;;;3.77;100.00;98764.25;10262886;28;20032;-78
2024/04/15 16:45:18;;;;;;;0.55;0.50;;;;;;;3.48;100.00;98785.97;10207352;29;20017;-76
2024/04/15 16:50:25;;;;;;;1.25;1.15;;;;;;;4.03;100.00;98811.81;10253901;28;20032;-76
2024/04/15 16:55:26;;;;;;;1.40;1.30;;;;;;;3.59;100.00;98789.56;10236816;29;20009;-75
2024/04/15 17:00:29;;;;;;;2.22;1.10;;;;;;;3.65;100.00;98767.88;10291579;29;20014;-75
2024/04/15 17:05:30;;;;;;;3.17;0.65;;;;;;;3.48;100.00;98780.66;10271757;28;20592;-76
2024/04/15 17:10:33;;;;;;;2.05;1.05;;;;;;;3.31;100.00;98834.16;10239922;28;20029;-76
2024/04/15 17:15:35;;;;;;;;;;;;;;;3.67;100.00;98838.47;10243811;28;20091;-76
2024/04/15 17:20:36;;;;;;;2.28;1.13;;;;;;;3.64;100.00;98851.97;10241770;29;19975;-76
2024/04/15 17:25:38;;;;;;;2.42;1.63;;;;;;;3.95;100.00;98842.50;10246162;28;20005;-76
2024/04/15 17:30:40;;;;;;;1.80;1.15;;;;;;;3.73;100.00;98853.13;10227353;29;20010;-76
2024/04/15 17:35:43;;;;;;;5.18;1.48;;;;;;;3.23;100.00;98877.19;10257819;28;20009;-76
2024/04/15 17:40:45;;;;;;;1.70;1.35;;;;;;;3.82;100.00;98865.66;10261907;28;20028;-76
2024/04/15 17:45:47;;;;;;;;;;;;;;;3.65;100.00;98858.16;10252605;29;20370;-76
2024/04/15 17:50:49;;;;;;;2.75;2.45;;;;;;;4.02;100.00;98826.06;10253299;29;19932;-76
2024/04/15 17:55:51;;;;;;;1.88;1.40;;;;;;;3.88;100.00;98825.34;10226850;28;20020;-77
2024/04/15 18:00:53;;;;;;;4.40;1.60;;;;;;;3.58;100.00;98849.81;10257795;29;20013;-75
2024/04/15 18:05:55;;;;;;;5.13;2.72;;;;;;;4.02;100.00;98858.81;10253530;28;20041;-79
2024/04/15 18:10:57;;;;;;;4.22;3.25;;;;;;;3.89;100.00;98850.09;10234104;29;20022;-77
2024/04/15 18:15:59;;;;;;;2.65;2.45;;;;;;;3.79;100.00;98865.91;10256849;28;20045;-77
2024/04/15 18:21:01;;;;;;;6.55;3.92;;;;;;;3.92;100.00;98855.16;10259301;29;20025;-77
2024/04/15 18:26:04;;;;;;;5.30;3.28;;;;;;;3.95;100.00;98871.72;10258970;28;20017;-75
2024/04/15 18:31:06;;;;;;;3.97;2.63;;;;;;;3.88;100.00;98857.22;10249684;28;20510;-75
2024/04/15 18:36:08;;;;;;;5.65;4.05;;;;;;;3.88;100.00;98870.50;10261858;28;20351;-77
2024/04/15 18:41:10;;;;;;;2.70;2.20;;;;;;;3.87;100.00;98871.47;10259027;29;20024;-77
2024/04/15 18:46:12;;;;;;;6.28;2.33;;;;;;;3.58;100.00;98859.59;10253274;29;20390;-77
2024/04/15 18:51:14;;;;;;;5.38;2.65;;;;;;;3.84;100.00;98862.88;10258121;28;20072;-77
2024/04/15 18:56:15;;;;;;;4.07;2.58;;;;;;;3.84;100.00;98866.41;10259680;29;20947;-78
2024/04/15 19:01:17;;;;;;;7.05;1.48;;;;;;;3.90;100.00;98883.69;10256500;29;20099;-76
2024/04/15 19:06:19;;;;;;;5.82;3.03;;;;;;;4.05;100.00;98878.97;10269876;28;20116;-75
2024/04/15 19:11:21;;;;;;;4.70;3.13;;;;;;;3.64;100.00;98886.50;10257961;28;20839;-76
2024/04/15 19:16:23;;;;;;;6.85;3.67;;;;;;;3.82;100.00;98902.03;10258146;28;20009;-75
2024/04/15 19:21:25;;;;;;;10.68;7.05;;;;;;;4.00;100.00;98894.41;10257657;28;20014;-76
2024/04/15 19:26:27;;;;;;;7.95;6.93;;;;;;;4.09;100.00;98897.22;10231244;29;20009;-75
2024/04/15 19:31:29;;;;;;;9.23;5.25;;;;;;;3.91;100.00;98902.13;10249317;28;20013;-78
2024/04/15 19:36:35;;;;;;;11.05;6.90;;;;;;;4.52;99.17;98900.97;10256188;28;20013;-74
2024/04/15 19:41:38;;;;;;;19.60;7.00;;;;;;;4.51;100.00;98900.13;10256842;29;20021;-76
2024/04/15 19:46:40;;;;;;;9.43;6.60;;;;;;;4.33;100.00;98882.97;10257616;28;20005;-75
2024/04/15 19:51:43;;;;;;;13.63;7.70;;;;;;;4.40;100.00;98918.75;10256366;28;20024;-77
2024/04/15 19:56:47;;;;;;;6.50;3.90;;;;;;;3.84;100.00;98937.25;10255308;29;20356;-77
2024/04/15 20:01:50;;;;;;;5.10;2.28;;;;;;;3.05;100.00;98939.59;10245975;28;20010;-77
2024/04/15 20:06:52;;;;;;;3.97;2.53;;;;;;;2.87;100.00;98933.81;10277741;28;20109;-76
2024/04/15 20:11:54;;;;;;;11.85;4.25;;;;;;;3.45;100.00;98934.00;10257761;28;20072;-77
2024/04/15 20:16:59;;;;;;;10.85;5.10;;;;;;;3.31;100.00;98936.81;10255459;29;20020;-79
2024/04/15 20:22:02;;;;;;;5.38;2.60;;;;;;;3.33;100.00;98930.44;10255187;28;20360;-77
2024/04/15 20:27:04;;;;;;;6.10;2.83;;;;;;;3.83;100.00;98935.56;10257689;28;20017;-78
2024/04/15 20:32:09;;;;;;;7.20;3.72;;;;;;;3.62;100.00;98936.25;10256745;29;20032;-77
2024/04/15 20:37:11;;;;;;;5.88;2.67;;;;;;;4.01;100.00;98930.69;10266741;28;20029;-78
2024/04/15 20:42:13;;;;;;;8.77;4.05;;;;;;;4.03;100.00;98931.38;10253598;28;20023;-76
2024/04/15 20:47:14;;;;;;;14.65;7.88;;;;;;;3.92;100.00;98941.03;10247991;28;20021;-77
2024/04/15 20:52:18;;;;;;;11.25;6.00;;;;;;;4.10;100.00;98935.28;10253586;29;20005;-77
2024/04/15 20:57:20;;;;;;;11.70;6.63;;;;;;;4.20;100.00;98951.34;10227561;28;20036;-76
2024/04/15 21:02:22;;;;;;;16.80;7.13;;;;;;;4.14;100.00;98939.38;10247008;28;20013;-78
2024/04/15 21:07:24;;;;;;;13.90;7.30;;;;;;;4.38;100.00;98933.97;10221303;29;20024;-78
2024/04/15 21:12:26;;;;;;;11.45;6.32;;;;;;;3.91;100.00;98933.19;10251343;29;20618;-76
2024/04/15 21:17:28;;;;;;;10.43;6.30;;;;;;;4.06;100.00;98932.00;10235622;28;20018;-77
2024/04/15 21:22:30;;;;;;;9.77;5.47;;;;;;;3.89;100.00;98938.59;10249951;28;20014;-75
2024/04/15 21:27:33;;;;;;;6.75;4.20;;;;;;;3.79;100.00;98923.50;10226491;29;20080;-76
2024/04/15 21:32:35;;;;;;;10.27;5.13;;;;;;;3.92;100.00;98921.56;10254588;28;20006;-76
2024/04/15 21:37:37;;;;;;;18.50;5.15;;;;;;;3.71;100.00;98921.41;10258083;29;20025;-77
2024/04/15 21:42:39;;;;;;;9.18;5.90;;;;;;;3.77;100.00;98912.97;10258299;29;20010;-77
2024/04/15 21:47:40;;;;;;;5.20;3.35;;;;;;;3.40;100.00;98931.69;10251606;29;20013;-77
2024/04/15 21:52:42;;;;;;;8.32;4.55;;;;;;;3.55;100.00;98916.41;10256945;28;20062;-76
2024/04/15 21:57:44;;;;;;;9.23;6.32;;;;;;;3.54;99.21;98935.09;10257519;29;20028;-76
2024/04/15 22:02:46;;;;;;;9.68;5.25;;;;;;;3.73;99.68;98917.69;10256864;29;20009;-77
2024/04/15 22:07:48;;;;;;;;;;;;;;;3.71;98.27;98927.56;10256218;29;20490;-76
2024/04/15 22:12:50;;;;;;;7.32;5.72;;;;;;;3.81;98.00;98913.59;10256042;29;20267;-76
2024/04/15 22:17:52;;;;;;;6.82;5.20;;;;;;;3.86;96.28;98911.44;10254452;29;20020;-77
2024/04/15 22:22:54;;;;;;;7.07;3.05;;;;;;;3.97;94.76;98934.50;10255849;29;20017;-76
2024/04/15 22:27:56;;;;;;;6.70;3.97;;;;;;;4.22;95.03;98926.34;10255197;29;20017;-78
2024/04/15 22:32:59;;;;;;;4.95;2.30;;;;;;;3.87;95.39;98927.25;10255043;29;20107;-76
2024/04/15 22:38:01;;;;;;;2.42;2.15;;;;;;;3.50;99.14;98927.38;10255068;29;20020;-76
2024/04/15 22:43:03;;;;;;;2.00;1.80;;;;;;;3.91;96.19;98923.41;10247315;28;20013;-75
2024/04/15 22:48:05;;;;;;;4.30;1.98;;;;;;;3.85;96.38;98907.09;10254807;29;20020;-76
2024/04/15 22:53:07;;;;;;;1.55;1.00;;;;;;;3.50;97.58;98918.56;10254395;28;20502;-76
2024/04/15 22:58:08;;;;;;;2.83;2.63;;;;;;;4.19;91.32;98902.66;10255169;29;20025;-75
2024/04/15 23:03:10;;;;;;;1.83;1.35;;;;;;;3.82;92.48;98915.28;10254612;29;20028;-76
2024/04/15 23:08:12;;;;;;;3.40;2.35;;;;;;;3.52;92.96;98905.19;10253274;29;20028;-75
2024/04/15 23:13:14;;;;;;;2.63;2.33;;;;;;;3.76;92.47;98911.31;10253342;29;20025;-75
2024/04/15 23:18:16;;;;;;;4.03;3.15;;;;;;;3.93;91.28;98912.66;10254178;28;20609;-76
2024/04/15 23:23:18;;;;;;;6.05;4.78;;;;;;;3.88;91.53;98914.81;10253802;28;20454;-76